createdAt,value
2024-02-24T00:00:36.575Z,34.67
2024-02-24T00:03:24.839Z,32.85
2024-02-24T00:05:53.489Z,30.08
2024-02-24T00:08:21.537Z,33.38
2024-02-24T00:10:50.162Z,33.28
2024-02-24T00:13:18.175Z,31.55
2024-02-24T00:15:46.659Z,31.42
2024-02-24T00:18:14.959Z,29.63
2024-02-24T00:20:43.534Z,28.60
2024-02-24T00:26:18.252Z,31.88
2024-02-24T00:28:47.005Z,31.25
2024-02-24T00:31:15.173Z,32.13
2024-02-24T00:33:44.804Z,32.20
2024-02-24T00:36:13.068Z,32.85
2024-02-24T00:38:41.516Z,28.13
2024-02-24T00:41:09.518Z,33.17
2024-02-24T00:43:37.980Z,29.75
2024-02-24T00:46:06.080Z,30.13
2024-02-24T00:48:34.543Z,32.03
2024-02-24T00:51:02.487Z,28.20
2024-02-24T00:53:30.912Z,28.10
2024-02-24T00:55:58.985Z,31.48
2024-02-24T00:58:27.296Z,26.50
2024-02-24T01:00:55.313Z,31.40
2024-02-24T01:03:23.609Z,29.45
2024-02-24T01:05:51.859Z,28.52
2024-02-24T01:08:20.573Z,28.67
2024-02-24T01:10:49.303Z,28.45
2024-02-24T01:13:17.758Z,26.92
2024-02-24T01:15:45.872Z,28.30
2024-02-24T01:18:14.540Z,28.75
2024-02-24T01:20:42.841Z,28.02
2024-02-24T01:23:11.168Z,26.33
2024-02-24T01:25:39.285Z,24.73
2024-02-24T01:28:07.492Z,26.50
2024-02-24T01:30:38.496Z,25.58
2024-02-24T01:33:07.347Z,27.92
2024-02-24T01:35:36.960Z,27.40
2024-02-24T01:38:09.023Z,25.80
2024-02-24T01:40:36.998Z,24.48
2024-02-24T01:43:30.791Z,23.48
2024-02-24T01:45:59.061Z,25.80
2024-02-24T01:48:27.458Z,23.30
2024-02-24T01:50:56.321Z,23.05
2024-02-24T01:53:25.675Z,25.77
2024-02-24T01:55:55.313Z,26.17
2024-02-24T01:58:25.166Z,26.23
2024-02-24T02:00:56.231Z,27.00
2024-02-24T02:03:24.973Z,26.55
2024-02-24T02:05:52.996Z,27.60
2024-02-24T02:08:21.570Z,27.02
2024-02-24T02:10:56.558Z,32.83
2024-02-24T02:13:25.554Z,30.05
2024-02-24T02:15:55.614Z,32.88
2024-02-24T02:18:24.245Z,30.30
2024-02-24T02:21:12.701Z,29.67
2024-02-24T02:23:41.207Z,28.38
2024-02-24T02:26:09.170Z,30.67
2024-02-24T02:28:37.522Z,31.60
2024-02-24T02:31:05.431Z,30.45
2024-02-24T02:33:34.347Z,30.88
2024-02-24T02:36:03.226Z,28.65
2024-02-24T02:38:31.591Z,29.27
2024-02-24T02:40:59.841Z,28.30
2024-02-24T02:43:28.561Z,30.08
2024-02-24T02:45:56.519Z,29.90
2024-02-24T02:48:24.989Z,32.15
2024-02-24T02:50:53.058Z,28.20
2024-02-24T02:53:21.729Z,30.58
2024-02-24T02:55:49.641Z,31.58
2024-02-24T02:58:18.087Z,30.63
2024-02-24T03:00:48.567Z,30.23
2024-02-24T03:03:19.748Z,34.53
2024-02-24T03:05:47.820Z,33.30
2024-02-24T03:08:16.134Z,33.67
2024-02-24T03:10:44.524Z,35.00
2024-02-24T03:13:13.430Z,34.60
2024-02-24T03:15:41.396Z,32.80
2024-02-24T03:18:09.795Z,33.70
2024-02-24T03:20:38.826Z,34.78
2024-02-24T03:23:08.022Z,40.60
2024-02-24T03:25:36.259Z,38.90
2024-02-24T03:28:05.593Z,33.63
2024-02-24T03:30:33.486Z,38.47
2024-02-24T03:33:01.955Z,37.08
2024-02-24T03:35:30.047Z,37.90
2024-02-24T03:37:59.456Z,39.80
2024-02-24T03:40:27.447Z,42.50
2024-02-24T03:42:55.707Z,39.33
2024-02-24T03:45:23.826Z,44.38
2024-02-24T03:47:52.959Z,44.33
2024-02-24T03:50:21.154Z,42.17
2024-02-24T03:52:49.617Z,44.50
2024-02-24T03:55:17.713Z,41.47
2024-02-24T03:57:48.789Z,37.83
2024-02-24T04:00:22.082Z,44.60
2024-02-24T04:05:30.707Z,42.47
2024-02-24T04:08:03.444Z,43.15
2024-02-24T04:10:35.161Z,46.05
2024-02-24T04:13:05.450Z,43.42
2024-02-24T04:15:33.535Z,44.20
2024-02-24T04:18:02.426Z,44.15
2024-02-24T04:20:30.750Z,46.08
2024-02-24T04:22:59.113Z,45.53
2024-02-24T04:25:27.164Z,46.72
2024-02-24T04:27:55.329Z,44.17
2024-02-24T04:30:23.328Z,46.00
2024-02-24T04:32:51.666Z,43.70
2024-02-24T04:35:19.962Z,47.25
2024-02-24T04:37:48.228Z,45.95
2024-02-24T04:40:16.672Z,46.08
2024-02-24T04:42:46.260Z,44.25
2024-02-24T04:45:14.587Z,46.30
2024-02-24T04:47:43.408Z,45.40
2024-02-24T04:50:11.617Z,45.90
2024-02-24T04:52:39.985Z,40.42
2024-02-24T04:55:08.398Z,42.90
2024-02-24T04:57:36.546Z,36.95
2024-02-24T05:00:04.977Z,38.38
2024-02-24T05:02:33.758Z,39.95
2024-02-24T05:05:01.853Z,38.47
2024-02-24T05:07:31.169Z,39.20
2024-02-24T05:09:59.187Z,38.38
2024-02-24T05:12:27.436Z,37.75
2024-02-24T05:14:55.770Z,38.80
2024-02-24T05:17:24.091Z,36.33
2024-02-24T05:19:52.986Z,37.97
2024-02-24T05:22:21.243Z,40.22
2024-02-24T05:24:49.664Z,39.63
2024-02-24T05:27:19.711Z,37.97
2024-02-24T05:29:48.231Z,37.35
2024-02-24T05:32:18.410Z,34.55
2024-02-24T05:34:46.518Z,40.10
2024-02-24T05:37:15.357Z,36.53
2024-02-24T05:39:43.405Z,37.63
2024-02-24T05:42:11.808Z,36.58
2024-02-24T05:44:39.878Z,33.50
2024-02-24T05:47:08.695Z,36.17
2024-02-24T05:49:36.686Z,38.33
2024-02-24T05:52:05.791Z,38.97
2024-02-24T05:54:33.878Z,38.72
2024-02-24T05:57:05.983Z,39.03
2024-02-24T05:59:33.981Z,37.85
2024-02-24T06:02:02.487Z,39.10
2024-02-24T06:04:31.036Z,35.75
2024-02-24T06:06:59.422Z,34.88
2024-02-24T06:09:27.584Z,34.92
2024-02-24T06:11:55.958Z,36.45
2024-02-24T06:14:24.223Z,33.92
2024-02-24T06:16:52.564Z,33.35
2024-02-24T06:19:21.354Z,31.30
2024-02-24T06:21:49.704Z,31.52
2024-02-24T06:24:17.795Z,35.28
2024-02-24T06:26:46.284Z,32.45
2024-02-24T06:29:17.475Z,42.70
2024-02-24T06:31:45.917Z,36.65
2024-02-24T06:34:13.813Z,33.28
2024-02-24T06:36:42.322Z,34.67
2024-02-24T06:39:10.191Z,38.10
2024-02-24T06:41:38.846Z,39.80
2024-02-24T06:44:07.923Z,42.28
2024-02-24T06:46:36.288Z,40.65
2024-02-24T06:49:04.617Z,37.72
2024-02-24T06:51:33.134Z,38.63
2024-02-24T06:54:01.106Z,37.40
2024-02-24T06:56:29.594Z,36.47
2024-02-24T06:59:00.074Z,38.83
2024-02-24T07:01:28.457Z,40.03
2024-02-24T07:03:59.099Z,40.58
2024-02-24T07:06:30.590Z,43.22
2024-02-24T07:08:58.866Z,39.95
2024-02-24T07:11:30.297Z,36.00
2024-02-24T07:13:58.451Z,42.65
2024-02-24T07:16:28.970Z,42.05
2024-02-24T07:18:57.101Z,39.17
2024-02-24T07:21:26.057Z,42.28
2024-02-24T07:23:57.028Z,39.78
2024-02-24T07:26:25.457Z,38.45
2024-02-24T07:28:53.341Z,35.63
2024-02-24T07:31:21.941Z,37.03
2024-02-24T07:33:49.991Z,34.83
2024-02-24T08:42:19.147Z,29.98
2024-02-24T08:44:53.729Z,31.25
2024-02-24T08:47:25.984Z,31.20
2024-02-24T08:49:58.250Z,30.65
2024-02-24T08:52:35.651Z,29.30
2024-02-24T08:55:12.296Z,26.98
2024-02-24T08:57:40.166Z,27.45
2024-02-24T09:00:10.133Z,28.00
2024-02-24T09:02:38.366Z,25.02
2024-02-24T09:05:07.517Z,25.88
2024-02-24T09:07:35.644Z,24.75
2024-02-24T09:10:07.086Z,30.02
2024-02-24T09:12:36.214Z,27.42
2024-02-24T09:15:05.254Z,28.45
2024-02-24T09:17:33.455Z,31.00
2024-02-24T09:20:02.600Z,27.48
2024-02-24T09:22:32.329Z,28.17
2024-02-24T09:25:00.626Z,30.63
2024-02-24T09:27:28.933Z,27.50
2024-02-24T09:29:57.267Z,25.83
2024-02-24T09:32:25.312Z,30.48
2024-02-24T09:34:53.725Z,31.08
2024-02-24T09:37:21.714Z,27.08
2024-02-24T09:39:50.316Z,27.58
2024-02-24T09:42:18.188Z,27.10
2024-02-24T09:44:46.570Z,28.75
2024-02-24T09:47:14.977Z,29.67
2024-02-24T09:49:44.911Z,26.40
2024-02-24T09:52:12.936Z,29.83
2024-02-24T09:54:41.197Z,29.00
2024-02-24T09:57:11.215Z,31.13
2024-02-24T09:59:39.739Z,28.10
2024-02-24T10:02:07.717Z,30.63
2024-02-24T10:04:36.064Z,28.25
2024-02-24T10:07:22.829Z,30.27
2024-02-24T10:09:51.278Z,26.85
2024-02-24T10:12:19.325Z,28.65
2024-02-24T10:14:50.306Z,29.17
2024-02-24T10:17:18.966Z,26.63
2024-02-24T10:19:47.937Z,25.55
2024-02-24T10:22:19.075Z,24.38
2024-02-24T10:24:47.639Z,26.50
2024-02-24T10:27:18.614Z,27.58
2024-02-24T10:29:54.091Z,35.95
2024-02-24T10:32:23.874Z,35.65
2024-02-24T10:34:54.082Z,37.65
2024-02-24T10:37:22.367Z,31.48
2024-02-24T10:39:51.453Z,33.70
2024-02-24T10:42:23.837Z,30.67
2024-02-24T10:44:53.549Z,32.17
2024-02-24T10:47:22.029Z,35.72
2024-02-24T10:49:50.652Z,35.92
2024-02-24T10:52:20.624Z,33.80
2024-02-24T10:54:51.638Z,35.83
2024-02-24T10:57:21.150Z,32.47
2024-02-24T10:59:49.883Z,34.20
2024-02-24T11:02:18.612Z,33.47
2024-02-24T11:04:47.036Z,31.98
2024-02-24T11:07:20.022Z,31.30
2024-02-24T11:09:53.201Z,37.88
2024-02-24T11:12:25.363Z,32.20
2024-02-24T11:14:56.124Z,30.10
2024-02-24T11:17:53.701Z,30.60
2024-02-24T11:20:41.331Z,26.77
2024-02-24T11:23:27.898Z,29.63
2024-02-24T11:26:17.759Z,33.13
2024-02-24T11:29:00.224Z,32.53
2024-02-24T11:31:35.859Z,33.83
2024-02-24T11:34:07.524Z,30.88
2024-02-24T11:36:39.531Z,30.80
2024-02-24T11:39:09.943Z,32.28
2024-02-24T11:41:38.803Z,30.20
2024-02-24T11:44:10.046Z,29.98
2024-02-24T11:46:38.464Z,31.02
2024-02-24T11:49:06.592Z,31.10
2024-02-24T11:51:36.090Z,30.50
2024-02-24T11:54:05.175Z,28.65
2024-02-24T11:56:34.004Z,35.13
2024-02-24T11:59:02.591Z,27.13
2024-02-24T12:01:31.205Z,27.85
2024-02-24T12:04:01.088Z,27.20
2024-02-24T12:06:32.337Z,29.50
2024-02-24T12:09:01.930Z,29.27
2024-02-24T12:11:30.742Z,31.80
2024-02-24T12:13:58.748Z,28.45
2024-02-24T12:16:29.261Z,31.55
2024-02-24T12:18:59.105Z,27.85
2024-02-24T12:21:29.031Z,28.27
2024-02-24T12:24:00.818Z,27.23
2024-02-24T12:26:29.481Z,34.33
2024-02-24T12:28:57.639Z,26.77
2024-02-24T12:31:26.287Z,30.65
2024-02-24T12:33:54.460Z,30.20
2024-02-24T12:36:26.265Z,25.00
2024-02-24T12:38:54.302Z,29.17
2024-02-24T12:41:22.959Z,27.73
2024-02-24T12:43:51.105Z,27.58
2024-02-24T12:46:23.870Z,26.05
2024-02-24T12:48:52.500Z,43.67
2024-02-24T12:51:22.306Z,28.15
2024-02-24T12:53:50.501Z,25.48
2024-02-24T12:56:18.983Z,38.38
2024-02-24T12:58:47.256Z,32.50
2024-02-24T13:01:16.094Z,27.55
2024-02-24T13:03:44.314Z,35.70
2024-02-24T13:06:12.942Z,25.58
2024-02-24T13:08:41.191Z,25.20
2024-02-24T13:11:10.568Z,24.52
2024-02-24T13:13:38.722Z,24.02
2024-02-24T13:16:07.019Z,35.30
2024-02-24T13:18:35.924Z,27.42
2024-02-24T13:21:04.782Z,23.80
2024-02-24T13:23:33.309Z,27.23
2024-02-24T13:26:01.655Z,23.55
2024-02-24T13:28:29.631Z,30.40
2024-02-24T13:30:57.901Z,30.55
2024-02-24T13:33:26.120Z,26.05
2024-02-24T13:35:54.751Z,25.73
2024-02-24T13:38:22.757Z,29.38
2024-02-24T13:40:51.087Z,30.50
2024-02-24T13:43:19.292Z,31.73
2024-02-24T13:45:47.672Z,35.92
2024-02-24T13:48:16.022Z,36.55
2024-02-24T13:50:44.376Z,36.53
2024-02-24T13:53:12.754Z,30.98
2024-02-24T13:55:41.426Z,30.83
2024-02-24T13:58:09.510Z,29.40
2024-02-24T14:00:37.875Z,29.00
2024-02-24T14:03:06.164Z,27.20
2024-02-24T14:05:34.900Z,25.77
2024-02-24T14:08:04.575Z,28.02
2024-02-24T14:10:34.818Z,24.67
2024-02-24T14:13:03.006Z,26.38
2024-02-24T14:15:34.208Z,29.05
2024-02-24T14:18:02.922Z,27.52
2024-02-24T14:20:35.633Z,29.20
2024-02-24T14:23:03.919Z,25.73
2024-02-24T14:25:35.710Z,27.30
2024-02-24T14:28:14.426Z,25.17
2024-02-24T14:30:47.813Z,29.63
2024-02-24T14:33:16.342Z,31.52
2024-02-24T14:35:44.752Z,28.73
2024-02-24T14:38:13.123Z,31.83
2024-02-24T14:40:41.469Z,27.38
2024-02-24T14:43:09.370Z,26.85
2024-02-24T14:45:37.844Z,25.98
2024-02-24T14:48:06.712Z,26.20
2024-02-24T14:50:35.500Z,30.38
2024-02-24T14:53:03.621Z,30.80
2024-02-24T14:55:31.934Z,27.20
2024-02-24T14:57:59.805Z,26.20
2024-02-24T15:00:28.662Z,25.02
2024-02-24T15:03:08.646Z,24.70
2024-02-24T15:05:39.541Z,27.00
2024-02-24T15:08:08.051Z,26.10
2024-02-24T15:10:36.631Z,27.45
2024-02-24T15:13:05.566Z,23.27
2024-02-24T15:15:34.394Z,23.23
2024-02-24T15:18:06.303Z,21.80
2024-02-24T15:20:34.718Z,23.60
2024-02-24T15:23:02.811Z,24.23
2024-02-24T15:25:31.194Z,30.40
2024-02-24T15:28:00.206Z,25.95
2024-02-24T15:30:31.037Z,24.98
2024-02-24T15:32:59.709Z,29.10
2024-02-24T15:35:29.095Z,23.90
2024-02-24T15:37:59.035Z,23.40
2024-02-24T15:40:29.530Z,25.35
2024-02-24T15:42:58.757Z,24.25
2024-02-24T15:45:27.115Z,24.23
2024-02-24T15:47:55.337Z,23.23
2024-02-24T15:50:24.564Z,27.30
2024-02-24T15:52:52.559Z,22.58
2024-02-24T15:55:20.861Z,23.45
2024-02-24T15:57:50.247Z,22.27
2024-02-24T16:00:18.417Z,22.45
2024-02-24T16:02:46.967Z,24.98
2024-02-24T16:05:18.381Z,22.67
2024-02-24T16:07:46.859Z,23.05
2024-02-24T16:10:16.574Z,25.40
2024-02-24T16:12:45.071Z,21.58
2024-02-24T16:15:13.472Z,22.30
2024-02-24T16:17:41.937Z,22.60
2024-02-24T16:20:10.450Z,21.73
2024-02-24T16:22:42.991Z,20.85
2024-02-24T16:25:14.565Z,24.33
2024-02-24T16:27:43.886Z,24.23
2024-02-24T16:30:12.845Z,23.95
2024-02-24T16:32:42.114Z,26.55
2024-02-24T16:35:10.136Z,24.10
2024-02-24T16:37:39.893Z,24.15
2024-02-24T16:40:09.457Z,24.55
2024-02-24T16:42:39.214Z,24.08
2024-02-24T16:45:08.575Z,21.77
2024-02-24T16:47:37.493Z,20.63
2024-02-24T16:50:07.379Z,23.60
2024-02-24T16:52:35.953Z,23.77
2024-02-24T16:55:05.433Z,21.13
2024-02-24T16:57:33.865Z,22.17
2024-02-24T17:00:02.268Z,21.73
2024-02-24T17:02:32.277Z,26.33
2024-02-24T17:05:00.319Z,25.83
2024-02-24T17:07:29.039Z,25.63
2024-02-24T17:09:58.300Z,26.38
2024-02-24T17:12:26.878Z,22.25
2024-02-24T17:14:55.081Z,22.63
2024-02-24T17:17:24.529Z,23.73
2024-02-24T17:19:52.645Z,22.65
2024-02-24T17:22:21.217Z,23.38
2024-02-24T17:24:49.410Z,24.42
2024-02-24T17:31:51.168Z,22.30
2024-02-24T17:34:22.356Z,23.08
2024-02-24T17:36:53.182Z,20.02
2024-02-24T17:39:22.630Z,23.35
2024-02-24T17:41:52.505Z,24.80
2024-02-24T17:44:21.097Z,20.42
2024-02-24T17:46:49.349Z,22.98
2024-02-24T17:49:18.182Z,22.33
2024-02-24T17:51:46.530Z,24.10
2024-02-24T17:54:14.679Z,23.17
2024-02-24T17:56:43.837Z,23.65
2024-02-24T17:59:13.396Z,18.08
2024-02-24T18:04:57.448Z,22.17
2024-02-24T18:07:28.258Z,21.67
2024-02-24T18:09:56.248Z,20.33
2024-02-24T18:12:25.259Z,36.03
2024-02-24T18:14:54.092Z,30.70
2024-02-24T18:17:22.922Z,19.92
2024-02-24T18:19:50.850Z,21.08
2024-02-24T18:22:19.392Z,20.00
2024-02-24T18:24:47.470Z,18.33
2024-02-24T18:27:15.927Z,19.65
2024-02-24T18:29:45.796Z,20.90
2024-02-24T18:32:14.353Z,20.45
2024-02-24T18:34:42.569Z,20.15
2024-02-24T18:37:12.273Z,21.58
2024-02-24T18:39:42.328Z,23.63
2024-02-24T18:42:10.744Z,17.67
2024-02-24T18:44:39.639Z,19.77
2024-02-24T18:47:08.335Z,18.65
2024-02-24T18:49:36.780Z,17.20
2024-02-24T18:52:07.262Z,18.80
2024-02-24T18:54:35.326Z,20.90
2024-02-24T18:57:04.794Z,16.70
2024-02-24T18:59:33.857Z,18.90
2024-02-24T19:02:02.208Z,16.30
2024-02-24T19:04:30.405Z,19.15
2024-02-24T19:06:58.612Z,16.58
2024-02-24T19:09:26.823Z,17.30
2024-02-24T19:11:55.380Z,17.58
2024-02-24T19:14:23.647Z,20.63
2024-02-24T19:16:52.146Z,16.63
2024-02-24T19:19:20.389Z,13.32
2024-02-24T19:21:48.875Z,15.38
2024-02-24T19:24:17.220Z,17.70
2024-02-24T19:26:45.677Z,17.48
2024-02-24T19:29:15.539Z,16.02
2024-02-24T19:31:43.878Z,16.85
2024-02-24T19:34:14.461Z,19.13
2024-02-24T19:36:43.008Z,19.35
2024-02-24T19:39:16.358Z,17.55
2024-02-24T19:41:47.789Z,17.95
2024-02-24T19:44:16.753Z,15.70
2024-02-24T19:46:45.129Z,15.40
2024-02-24T19:49:13.385Z,16.40
2024-02-24T19:51:41.859Z,16.92
2024-02-24T19:54:09.982Z,15.18
2024-02-24T19:56:38.363Z,15.30
2024-02-24T19:59:06.315Z,16.02
2024-02-24T20:01:34.793Z,16.02
2024-02-24T20:04:02.714Z,15.57
2024-02-24T20:06:31.392Z,18.83
2024-02-24T20:08:59.909Z,18.45
2024-02-24T20:11:28.558Z,16.98
2024-02-24T20:13:56.830Z,17.48
2024-02-24T20:16:25.576Z,14.23
2024-02-24T20:18:53.696Z,17.10
2024-02-24T20:21:22.093Z,14.05
2024-02-24T20:23:50.092Z,16.30
2024-02-24T20:26:18.994Z,16.73
2024-02-24T20:28:46.826Z,17.02
2024-02-24T20:31:15.354Z,15.50
2024-02-24T20:33:53.355Z,16.83
2024-02-24T20:36:28.821Z,15.75
2024-02-24T20:38:59.789Z,18.17
2024-02-24T20:41:30.519Z,17.27
2024-02-24T20:43:59.300Z,16.88
2024-02-24T20:46:27.615Z,14.32
2024-02-24T20:48:55.704Z,18.08
2024-02-24T20:51:24.001Z,16.85
2024-02-24T20:53:53.189Z,16.75
2024-02-24T20:56:22.923Z,14.85
2024-02-24T20:58:50.876Z,15.50
2024-02-24T21:01:19.157Z,17.65
2024-02-24T21:03:47.301Z,16.73
2024-02-24T21:06:15.792Z,19.88
2024-02-24T21:08:44.441Z,19.83
2024-02-24T21:11:12.709Z,17.23
2024-02-24T21:13:40.812Z,19.17
2024-02-24T21:16:09.162Z,17.38
2024-02-24T21:18:37.375Z,18.80
2024-02-24T21:21:06.152Z,17.15
2024-02-24T21:23:34.495Z,18.83
2024-02-24T21:26:07.310Z,22.13
2024-02-24T21:28:35.143Z,17.92
2024-02-24T21:31:03.876Z,18.35
2024-02-24T21:33:32.285Z,17.88
2024-02-24T21:36:00.700Z,21.30
2024-02-24T21:38:31.573Z,18.90
2024-02-24T21:41:00.322Z,18.88
2024-02-24T21:43:28.371Z,19.05
2024-02-24T21:45:56.690Z,20.58
2024-02-24T21:48:24.724Z,21.65
2024-02-24T21:50:53.384Z,18.52
2024-02-24T21:53:21.268Z,20.58
2024-02-24T21:55:49.675Z,19.92
2024-02-24T21:58:18.557Z,18.75
2024-02-24T22:00:49.754Z,19.60
2024-02-24T22:03:19.203Z,21.63
2024-02-24T22:05:48.070Z,23.98
2024-02-24T22:08:16.288Z,21.25
2024-02-24T22:10:44.699Z,20.83
2024-02-24T22:13:13.404Z,22.13
2024-02-24T22:15:41.848Z,21.35
2024-02-24T22:18:09.958Z,24.52
2024-02-24T22:20:38.544Z,20.42
2024-02-24T22:23:06.463Z,22.40
2024-02-24T22:25:34.974Z,21.98
2024-02-24T22:28:02.877Z,20.65
2024-02-24T22:30:31.468Z,22.00
2024-02-24T22:32:59.629Z,24.05
2024-02-24T22:35:28.201Z,18.10
2024-02-24T22:37:56.214Z,22.10
2024-02-24T22:40:24.703Z,20.83
2024-02-24T22:42:52.740Z,21.05
2024-02-24T22:45:21.332Z,21.27
2024-02-24T22:47:49.780Z,20.65
2024-02-24T22:50:18.496Z,20.58
2024-02-24T22:52:46.449Z,22.63
2024-02-24T22:55:14.922Z,23.83
2024-02-24T22:57:43.063Z,22.92
2024-02-24T23:00:15.018Z,23.85
2024-02-24T23:02:43.757Z,21.58
2024-02-24T23:05:12.036Z,23.50
2024-02-24T23:07:40.158Z,20.15
2024-02-24T23:10:10.927Z,19.10
2024-02-24T23:12:40.176Z,25.05
2024-02-24T23:15:09.095Z,21.27
2024-02-24T23:17:39.722Z,20.90
2024-02-24T23:20:08.804Z,19.63
2024-02-24T23:22:36.821Z,24.95
2024-02-24T23:25:05.549Z,18.48
2024-02-24T23:27:33.451Z,18.23
2024-02-24T23:30:02.151Z,21.23
2024-02-24T23:32:31.772Z,20.73
2024-02-24T23:35:00.161Z,24.25
2024-02-24T23:37:28.335Z,23.45
2024-02-24T23:39:56.676Z,21.92
2024-02-24T23:42:24.541Z,21.90
2024-02-24T23:44:53.102Z,25.63
2024-02-24T23:47:21.705Z,21.85
2024-02-24T23:49:49.863Z,23.33
2024-02-24T23:52:18.483Z,21.63
2024-02-24T23:54:46.677Z,22.02
2024-02-24T23:57:15.331Z,22.42
2024-02-24T23:59:43.343Z,23.10
